createdAt,value
2019-06-08T00:00:09.540Z,0.53
2019-06-08T00:02:40.495Z,1.17
2019-06-08T00:05:12.594Z,0.50
2019-06-08T00:07:43.497Z,0.30
2019-06-08T00:10:14.788Z,0.63
2019-06-08T00:12:45.570Z,0.60
2019-06-08T00:15:16.644Z,0.50
2019-06-08T00:17:47.436Z,0.40
2019-06-08T00:20:19.756Z,0.50
2019-06-08T00:22:50.657Z,0.50
2019-06-08T00:25:22.551Z,0.60
2019-06-08T00:27:53.380Z,0.67
2019-06-08T00:30:24.229Z,0.50
2019-06-08T00:32:55.848Z,0.47
2019-06-08T00:35:26.538Z,0.53
2019-06-08T00:37:57.168Z,0.50
2019-06-08T00:40:27.783Z,0.53
2019-06-08T00:42:58.296Z,0.50
2019-06-08T00:45:28.893Z,0.50
2019-06-08T00:47:59.469Z,0.40
2019-06-08T00:50:30.051Z,0.53
2019-06-08T00:53:00.642Z,1.73
2019-06-08T00:55:31.236Z,0.60
2019-06-08T00:58:01.816Z,1.30
2019-06-08T01:00:32.797Z,0.50
2019-06-08T01:03:03.791Z,0.50
2019-06-08T01:05:34.676Z,0.50
2019-06-08T01:08:05.854Z,0.33
2019-06-08T01:10:36.760Z,0.60
2019-06-08T01:13:07.849Z,0.60
2019-06-08T01:15:38.639Z,0.53
2019-06-08T01:18:09.606Z,0.50
2019-06-08T01:20:40.391Z,0.60
2019-06-08T01:23:11.386Z,0.50
2019-06-08T01:25:42.299Z,0.40
2019-06-08T01:28:13.230Z,0.50
2019-06-08T01:30:44.311Z,0.50
2019-06-08T01:33:15.094Z,0.50
2019-06-08T01:35:46.021Z,0.40
2019-06-08T01:38:16.822Z,0.50
2019-06-08T01:40:47.764Z,0.60
2019-06-08T01:43:18.654Z,0.50
2019-06-08T01:45:49.541Z,0.57
2019-06-08T01:48:21.954Z,0.60
2019-06-08T01:50:53.076Z,0.40
2019-06-08T01:53:24.664Z,0.50
2019-06-08T01:55:55.638Z,0.40
2019-06-08T01:58:27.435Z,0.40
2019-06-08T02:00:58.298Z,0.70
2019-06-08T02:03:30.278Z,0.40
2019-06-08T02:06:00.915Z,0.40
2019-06-08T02:08:32.642Z,0.50
2019-06-08T02:11:03.276Z,0.90
2019-06-08T02:13:35.244Z,0.60
2019-06-08T02:16:05.977Z,0.70
2019-06-08T02:18:48.979Z,0.53
2019-06-08T02:21:08.840Z,1.27
2019-06-08T02:23:39.778Z,0.50
2019-06-08T02:26:11.349Z,0.40
2019-06-08T02:28:42.255Z,0.80
2019-06-08T02:31:13.044Z,0.50
2019-06-08T02:33:43.930Z,0.60
2019-06-08T02:36:14.614Z,0.40
2019-06-08T02:38:45.432Z,0.77
2019-06-08T02:41:16.414Z,0.60
2019-06-08T02:43:47.309Z,1.93
2019-06-08T02:46:18.158Z,0.50
2019-06-08T02:49:03.578Z,0.70
2019-06-08T02:51:22.806Z,0.60
2019-06-08T02:53:53.753Z,0.80
2019-06-08T02:56:25.686Z,0.50
2019-06-08T02:58:58.740Z,0.50
2019-06-08T03:01:33.671Z,0.60
2019-06-08T03:04:04.713Z,0.60
2019-06-08T03:06:39.464Z,0.73
2019-06-08T03:09:10.528Z,0.77
2019-06-08T03:11:42.281Z,0.50
2019-06-08T03:14:13.874Z,0.40
2019-06-08T03:16:44.683Z,1.20
2019-06-08T03:19:21.670Z,0.87
2019-06-08T03:21:48.132Z,0.43
2019-06-08T03:24:18.728Z,0.60
2019-06-08T03:26:49.606Z,0.70
2019-06-08T03:29:20.196Z,0.50
2019-06-08T03:31:55.674Z,0.70
2019-06-08T03:34:23.113Z,0.70
2019-06-08T03:36:56.678Z,1.07
2019-06-08T03:39:25.942Z,1.00
2019-06-08T03:41:56.618Z,0.57
2019-06-08T03:44:27.158Z,0.50
2019-06-08T03:46:57.875Z,0.70
2019-06-08T03:49:41.465Z,0.37
2019-06-08T03:52:01.526Z,0.93
2019-06-08T03:54:32.070Z,0.57
2019-06-08T03:57:02.838Z,0.67
2019-06-08T03:59:33.648Z,1.63
2019-06-08T04:02:05.679Z,0.50
2019-06-08T04:04:37.959Z,0.70
2019-06-08T04:07:08.979Z,0.60
2019-06-08T04:09:40.361Z,0.70
2019-06-08T04:12:12.448Z,0.70
2019-06-08T04:14:44.562Z,0.70
2019-06-08T04:17:15.857Z,0.50
2019-06-08T04:20:06.354Z,0.60
2019-06-08T04:22:19.155Z,0.70
2019-06-08T04:24:50.611Z,0.60
2019-06-08T04:27:21.765Z,1.53
2019-06-08T04:29:52.651Z,0.77
2019-06-08T04:32:23.618Z,1.63
2019-06-08T04:34:54.460Z,0.60
2019-06-08T04:37:25.273Z,0.60
2019-06-08T04:39:56.237Z,0.50
2019-06-08T04:42:26.942Z,0.90
2019-06-08T04:44:57.917Z,0.80
2019-06-08T04:47:28.460Z,0.70
2019-06-08T04:49:59.044Z,0.60
2019-06-08T04:52:29.589Z,0.60
2019-06-08T04:55:00.180Z,0.70
2019-06-08T04:57:30.742Z,0.73
2019-06-08T05:00:11.136Z,0.80
2019-06-08T05:02:33.960Z,0.90
2019-06-08T05:05:05.513Z,0.50
2019-06-08T05:07:36.314Z,1.60
2019-06-08T05:10:07.777Z,0.50
2019-06-08T05:12:41.170Z,0.90
2019-06-08T05:15:12.212Z,0.80
2019-06-08T05:17:43.299Z,0.80
2019-06-08T05:20:14.338Z,0.70
2019-06-08T05:22:45.717Z,0.50
2019-06-08T05:25:16.461Z,1.03
2019-06-08T05:27:47.445Z,1.00
2019-06-08T05:30:18.793Z,0.97
2019-06-08T05:32:49.790Z,0.70
2019-06-08T05:35:20.884Z,0.70
2019-06-08T05:37:51.818Z,0.90
2019-06-08T05:40:22.749Z,0.70
2019-06-08T05:42:53.568Z,0.50
2019-06-08T05:45:24.320Z,0.60
2019-06-08T05:47:55.196Z,0.60
2019-06-08T05:50:26.307Z,0.60
2019-06-08T05:52:57.222Z,0.70
2019-06-08T05:55:28.199Z,0.93
2019-06-08T05:57:58.996Z,0.70
2019-06-08T06:00:30.003Z,0.60
2019-06-08T06:03:00.867Z,1.00
2019-06-08T06:05:31.828Z,0.70
2019-06-08T06:08:02.932Z,0.40
2019-06-08T06:10:33.944Z,0.60
2019-06-08T06:13:04.723Z,0.50
2019-06-08T06:15:35.692Z,0.90
2019-06-08T06:18:06.619Z,0.90
2019-06-08T06:20:37.690Z,0.67
2019-06-08T06:23:09.598Z,0.60
2019-06-08T06:25:41.363Z,0.50
2019-06-08T06:28:12.048Z,0.60
2019-06-08T06:30:44.189Z,0.93
2019-06-08T06:33:14.814Z,0.60
2019-06-08T06:35:50.334Z,0.40
2019-06-08T06:38:22.616Z,0.40
2019-06-08T06:40:53.357Z,0.53
2019-06-08T06:43:24.312Z,0.80
2019-06-08T06:45:55.217Z,0.50
2019-06-08T06:48:26.082Z,0.60
2019-06-08T06:50:57.965Z,1.43
2019-06-08T06:53:28.854Z,0.60
2019-06-08T06:55:59.857Z,0.50
2019-06-08T06:58:30.736Z,0.63
2019-06-08T07:01:01.628Z,0.50
2019-06-08T07:03:32.398Z,0.50
2019-06-08T07:06:03.278Z,0.53
2019-06-08T07:08:34.086Z,0.60
2019-06-08T07:11:05.254Z,0.60
2019-06-08T07:13:36.170Z,0.50
2019-06-08T07:16:18.009Z,0.60
2019-06-08T07:18:39.589Z,0.63
2019-06-08T07:21:10.567Z,0.57
2019-06-08T07:23:41.354Z,0.70
2019-06-08T07:26:12.241Z,1.30
2019-06-08T07:28:43.018Z,0.63
2019-06-08T07:31:13.992Z,0.67
2019-06-08T07:33:44.892Z,0.50
2019-06-08T07:36:15.873Z,0.63
2019-06-08T07:38:47.010Z,0.43
2019-06-08T07:41:19.092Z,0.77
2019-06-08T07:43:50.732Z,0.73
2019-06-08T07:46:21.558Z,0.50
2019-06-08T07:48:52.636Z,0.83
2019-06-08T07:51:25.447Z,0.60
2019-06-08T07:53:56.337Z,1.23
2019-06-08T07:56:27.166Z,0.70
2019-06-08T07:58:59.070Z,0.60
2019-06-08T08:01:36.313Z,0.50
2019-06-08T08:04:02.625Z,0.57
2019-06-08T08:06:33.601Z,0.67
2019-06-08T08:09:05.947Z,1.43
2019-06-08T08:11:36.477Z,0.70
2019-06-08T08:14:07.063Z,0.67
2019-06-08T08:16:37.697Z,0.70
2019-06-08T08:19:08.315Z,0.50
2019-06-08T08:21:40.930Z,0.77
2019-06-08T08:24:11.465Z,0.50
2019-06-08T08:26:42.539Z,0.50
2019-06-08T08:29:13.325Z,0.60
2019-06-08T08:31:44.225Z,0.50
2019-06-08T08:34:15.097Z,0.60
2019-06-08T08:36:48.150Z,0.40
2019-06-08T08:39:18.728Z,0.80
2019-06-08T08:41:53.640Z,0.53
2019-06-08T08:44:22.303Z,0.67
2019-06-08T08:46:54.597Z,0.60
2019-06-08T08:49:27.966Z,0.60
2019-06-08T08:52:00.027Z,0.80
2019-06-08T08:54:30.758Z,0.40
2019-06-08T08:57:04.531Z,0.80
2019-06-08T08:59:34.154Z,0.60
2019-06-08T09:02:05.164Z,0.60
2019-06-08T09:04:38.051Z,0.77
2019-06-08T09:07:10.641Z,0.50
2019-06-08T09:09:41.311Z,0.70
2019-06-08T09:12:12.083Z,0.93
2019-06-08T09:14:43.021Z,0.87
2019-06-08T09:17:14.742Z,0.50
2019-06-08T09:19:47.855Z,1.03
2019-06-08T09:22:18.837Z,0.60
2019-06-08T09:24:49.883Z,0.73
2019-06-08T09:27:20.836Z,0.40
2019-06-08T09:29:53.359Z,0.40
2019-06-08T09:32:24.241Z,0.50
2019-06-08T09:34:57.177Z,0.67
2019-06-08T09:37:28.759Z,0.50
2019-06-08T09:40:00.859Z,0.40
2019-06-08T09:42:31.856Z,0.40
2019-06-08T09:45:05.362Z,0.63
2019-06-08T09:47:37.945Z,0.50
2019-06-08T09:50:09.572Z,0.50
2019-06-08T09:52:41.375Z,0.50
2019-06-08T09:55:12.934Z,0.40
2019-06-08T09:57:43.769Z,0.60
2019-06-08T10:00:18.479Z,0.60
2019-06-08T10:02:47.890Z,0.50
2019-06-08T10:05:18.949Z,0.60
2019-06-08T10:07:49.780Z,0.50
2019-06-08T10:10:20.518Z,1.00
2019-06-08T10:12:51.414Z,0.80
2019-06-08T10:15:22.313Z,0.93
2019-06-08T10:17:54.718Z,0.87
2019-06-08T10:20:28.856Z,0.60
2019-06-08T10:23:01.559Z,0.40
2019-06-08T10:25:31.795Z,0.67
2019-06-08T10:28:07.789Z,0.50
2019-06-08T10:30:35.382Z,0.50
2019-06-08T10:33:07.777Z,0.50
2019-06-08T10:35:39.005Z,0.50
2019-06-08T10:38:12.230Z,0.50
2019-06-08T10:41:11.987Z,0.40
2019-06-08T10:43:35.142Z,0.50
2019-06-08T10:46:14.027Z,0.70
2019-06-08T10:48:38.130Z,0.40
2019-06-08T10:51:12.514Z,0.60
2019-06-08T10:53:52.697Z,0.73
2019-06-08T10:56:13.674Z,0.57
2019-06-08T10:58:44.393Z,0.50
2019-06-08T11:01:14.939Z,0.67
2019-06-08T11:03:45.555Z,0.80
2019-06-08T11:06:18.551Z,0.53
2019-06-08T11:08:48.678Z,0.60
2019-06-08T11:11:20.481Z,0.50
2019-06-08T11:13:52.488Z,0.60
2019-06-08T11:16:23.425Z,0.50
2019-06-08T11:18:54.235Z,0.60
2019-06-08T11:21:25.106Z,0.73
2019-06-08T11:24:07.580Z,0.57
2019-06-08T11:26:29.042Z,0.40
2019-06-08T11:29:01.565Z,0.70
2019-06-08T11:31:32.501Z,0.43
2019-06-08T11:34:03.951Z,0.60
2019-06-08T11:36:36.114Z,0.70
2019-06-08T11:39:10.838Z,0.60
2019-06-08T11:41:40.614Z,0.40
2019-06-08T11:44:14.352Z,0.50
2019-06-08T11:46:44.220Z,0.80
2019-06-08T11:49:18.170Z,0.50
2019-06-08T11:51:47.956Z,0.70
2019-06-08T11:54:33.224Z,0.63
2019-06-08T11:56:54.377Z,0.47
2019-06-08T11:59:25.683Z,0.60
2019-06-08T12:01:58.486Z,0.73
2019-06-08T12:04:28.520Z,0.73
2019-06-08T12:06:59.070Z,0.47
2019-06-08T12:09:29.720Z,0.50
2019-06-08T12:12:00.347Z,0.50
2019-06-08T12:14:33.605Z,0.40
2019-06-08T12:17:03.510Z,0.60
2019-06-08T12:19:34.054Z,0.40
2019-06-08T12:22:06.158Z,0.60
2019-06-08T12:24:42.134Z,0.80
2019-06-08T12:27:22.045Z,0.60
2019-06-08T12:29:41.903Z,0.70
2019-06-08T12:32:14.362Z,0.60
2019-06-08T12:34:45.360Z,1.37
2019-06-08T12:37:21.796Z,0.50
2019-06-08T12:39:48.796Z,0.50
2019-06-08T12:42:24.381Z,0.67
2019-06-08T12:44:52.191Z,0.40
2019-06-08T12:47:26.727Z,0.50
2019-06-08T12:49:58.292Z,0.40
2019-06-08T12:52:29.765Z,0.43
2019-06-08T12:55:06.881Z,0.40
2019-06-08T12:57:33.555Z,0.60
2019-06-08T13:00:04.946Z,0.47
2019-06-08T13:02:38.246Z,0.67
2019-06-08T13:05:12.470Z,0.50
2019-06-08T13:07:41.049Z,0.60
2019-06-08T13:10:13.214Z,0.40
2019-06-08T13:12:44.026Z,0.60
2019-06-08T13:15:15.281Z,0.50
2019-06-08T13:17:47.775Z,0.50
2019-06-08T13:20:22.157Z,0.40
2019-06-08T13:22:52.232Z,0.60
2019-06-08T13:25:36.417Z,0.73
2019-06-08T13:27:58.302Z,0.50
2019-06-08T13:30:31.988Z,0.47
2019-06-08T13:33:01.407Z,0.93
2019-06-08T13:35:32.120Z,0.60
2019-06-08T13:38:03.141Z,0.60
2019-06-08T13:40:34.088Z,0.60
2019-06-08T13:43:04.788Z,0.40
2019-06-08T13:45:35.370Z,0.53
2019-06-08T13:48:08.698Z,0.50
2019-06-08T13:50:38.394Z,0.50
2019-06-08T13:53:10.629Z,0.60
2019-06-08T13:55:55.027Z,0.60
2019-06-08T13:58:13.160Z,0.40
2019-06-08T14:00:43.847Z,0.50
2019-06-08T14:03:15.430Z,0.47
2019-06-08T14:05:47.821Z,0.40
2019-06-08T14:08:20.473Z,0.67
2019-06-08T14:10:50.856Z,0.53
2019-06-08T14:13:29.317Z,0.60
2019-06-08T14:15:54.136Z,0.60
2019-06-08T14:18:29.969Z,0.50
2019-06-08T14:20:58.725Z,1.07
2019-06-08T14:23:31.060Z,0.60
2019-06-08T14:26:02.969Z,0.47
2019-06-08T14:28:33.811Z,0.57
2019-06-08T14:31:04.680Z,0.60
2019-06-08T14:33:35.376Z,0.50
2019-06-08T14:36:07.951Z,0.50
2019-06-08T14:38:42.086Z,1.40
2019-06-08T14:41:11.597Z,0.60
2019-06-08T14:43:42.303Z,0.40
2019-06-08T14:46:13.185Z,0.40
2019-06-08T14:48:45.413Z,0.53
2019-06-08T14:51:16.531Z,0.50
2019-06-08T14:53:48.598Z,0.57
2019-06-08T14:56:20.990Z,0.60
2019-06-08T14:58:52.301Z,0.50
2019-06-08T15:01:24.493Z,0.70
2019-06-08T15:03:58.569Z,0.50
2019-06-08T15:06:33.988Z,0.70
2019-06-08T15:09:02.272Z,0.53
2019-06-08T15:11:35.294Z,0.40
2019-06-08T15:14:08.404Z,0.60
2019-06-08T15:16:41.628Z,0.50
2019-06-08T15:19:10.883Z,0.60
2019-06-08T15:21:41.513Z,0.43
2019-06-08T15:24:12.071Z,0.70
2019-06-08T15:26:45.195Z,0.50
2019-06-08T15:29:14.952Z,0.40
2019-06-08T15:31:47.562Z,0.50
2019-06-08T15:34:18.457Z,0.47
2019-06-08T15:36:49.320Z,2.27
2019-06-08T15:39:21.546Z,0.60
2019-06-08T15:41:52.679Z,0.40
2019-06-08T15:44:24.632Z,0.57
2019-06-08T15:46:55.678Z,0.60
2019-06-08T15:49:29.021Z,0.97
2019-06-08T15:51:58.972Z,1.03
2019-06-08T15:54:34.921Z,0.50
2019-06-08T15:57:02.265Z,0.43
2019-06-08T15:59:38.996Z,0.43
2019-06-08T16:02:06.119Z,2.50
2019-06-08T16:04:37.016Z,0.50
2019-06-08T16:07:08.268Z,0.47
2019-06-08T16:09:39.656Z,0.40
2019-06-08T16:12:10.651Z,0.60
2019-06-08T16:14:41.754Z,0.77
2019-06-08T16:17:12.726Z,0.40
2019-06-08T16:19:43.529Z,0.70
2019-06-08T16:22:14.303Z,1.33
2019-06-08T16:24:45.287Z,0.40
2019-06-08T16:27:16.125Z,0.50
2019-06-08T16:29:47.940Z,0.50
2019-06-08T16:32:18.717Z,0.50
2019-06-08T16:34:49.508Z,0.80
2019-06-08T16:37:20.586Z,0.37
2019-06-08T16:39:51.472Z,1.30
2019-06-08T16:42:22.090Z,0.83
2019-06-08T16:44:52.732Z,1.10
2019-06-08T16:47:23.673Z,0.97
2019-06-08T16:49:54.480Z,0.90
2019-06-08T16:52:25.429Z,1.00
2019-06-08T16:54:55.991Z,0.67
2019-06-08T16:57:26.609Z,0.50
2019-06-08T16:59:57.168Z,0.40
2019-06-08T17:02:28.557Z,0.50
2019-06-08T17:04:59.124Z,0.50
2019-06-08T17:07:29.759Z,0.57
2019-06-08T17:10:00.315Z,0.90
2019-06-08T17:12:30.937Z,1.10
2019-06-08T17:15:01.661Z,2.83
2019-06-08T17:17:34.254Z,4.43
2019-06-08T17:20:06.153Z,2.57
2019-06-08T17:22:37.065Z,2.00
2019-06-08T17:25:08.528Z,4.80
2019-06-08T17:27:40.804Z,8.03
2019-06-08T17:30:12.229Z,2.53
2019-06-08T17:32:42.932Z,3.40
2019-06-08T17:35:14.004Z,3.20
2019-06-08T17:37:44.967Z,2.20
2019-06-08T17:40:16.295Z,4.63
2019-06-08T17:42:47.133Z,6.47
2019-06-08T17:45:18.703Z,4.43
2019-06-08T17:47:49.619Z,2.40
2019-06-08T17:50:20.620Z,1.60
2019-06-08T17:52:51.623Z,1.20
2019-06-08T17:55:22.528Z,1.50
2019-06-08T17:57:53.894Z,1.57
2019-06-08T18:00:25.232Z,2.10
2019-06-08T18:02:57.734Z,2.87
2019-06-08T18:05:28.747Z,1.90
2019-06-08T18:07:59.655Z,2.27
2019-06-08T18:10:31.061Z,1.50
2019-06-08T18:13:01.740Z,1.87
2019-06-08T18:15:34.022Z,1.60
2019-06-08T18:18:04.957Z,0.80
2019-06-08T18:20:38.592Z,0.80
2019-06-08T18:23:08.470Z,1.10
2019-06-08T18:25:40.624Z,1.43
2019-06-08T18:28:13.571Z,1.33
2019-06-08T18:30:45.143Z,1.27
2019-06-08T18:33:18.563Z,0.80
2019-06-08T18:35:50.542Z,0.90
2019-06-08T18:38:21.264Z,0.83
2019-06-08T18:40:52.063Z,0.90
2019-06-08T18:43:24.367Z,0.60
2019-06-08T18:45:57.558Z,0.67
2019-06-08T18:48:28.758Z,1.20
2019-06-08T18:50:59.652Z,1.10
2019-06-08T18:53:30.224Z,1.47
2019-06-08T18:56:00.841Z,2.20
2019-06-08T18:58:32.384Z,0.90
2019-06-08T19:01:02.948Z,0.50
2019-06-08T19:03:33.545Z,2.00
2019-06-08T19:06:04.213Z,0.70
2019-06-08T19:08:39.237Z,0.80
2019-06-08T19:11:08.144Z,0.90
2019-06-08T19:13:39.655Z,1.03
2019-06-08T19:16:10.474Z,0.70
2019-06-08T19:18:46.277Z,1.00
2019-06-08T19:21:14.912Z,0.60
2019-06-08T19:23:49.199Z,1.20
2019-06-08T19:26:18.204Z,0.60
2019-06-08T19:28:53.776Z,0.47
2019-06-08T19:31:21.736Z,0.60
2019-06-08T19:33:53.436Z,1.20
2019-06-08T19:36:24.536Z,0.50
2019-06-08T19:38:57.594Z,0.83
2019-06-08T19:41:28.443Z,0.90
2019-06-08T19:44:00.309Z,0.60
2019-06-08T19:46:30.906Z,0.83
2019-06-08T19:49:01.820Z,0.80
2019-06-08T19:51:32.714Z,0.70
2019-06-08T19:54:03.705Z,0.70
2019-06-08T19:56:34.504Z,0.80
2019-06-08T19:59:08.362Z,0.67
2019-06-08T20:01:39.455Z,0.50
2019-06-08T20:04:10.534Z,0.90
2019-06-08T20:06:41.318Z,0.60
2019-06-08T20:09:12.188Z,1.03
2019-06-08T20:11:46.911Z,1.13
2019-06-08T20:14:15.060Z,2.70
2019-06-08T20:16:48.096Z,1.43
2019-06-08T20:19:17.924Z,0.60
2019-06-08T20:21:51.261Z,2.40
2019-06-08T20:24:21.184Z,2.37
2019-06-08T20:26:54.360Z,2.00
2019-06-08T20:29:24.681Z,1.83
2019-06-08T20:31:57.770Z,2.07
2019-06-08T20:34:28.445Z,1.60
2019-06-08T20:37:01.395Z,1.77
2019-06-08T20:39:32.770Z,1.00
2019-06-08T20:42:03.763Z,1.20
2019-06-08T20:44:37.477Z,1.10
2019-06-08T20:47:08.471Z,0.97
2019-06-08T20:49:39.595Z,0.97
2019-06-08T20:52:10.856Z,1.10
2019-06-08T20:54:42.768Z,1.30
2019-06-08T20:57:14.017Z,2.10
2019-06-08T20:59:45.675Z,1.10
2019-06-08T21:02:17.829Z,1.53
2019-06-08T21:04:51.325Z,0.80
2019-06-08T21:07:21.540Z,1.43
2019-06-08T21:09:53.709Z,0.80
2019-06-08T21:12:25.485Z,0.70
2019-06-08T21:14:56.434Z,0.90
2019-06-08T21:17:32.596Z,1.67
2019-06-08T21:20:03.364Z,0.70
2019-06-08T21:22:35.023Z,0.70
2019-06-08T21:25:09.966Z,0.80
2019-06-08T21:27:40.783Z,0.80
2019-06-08T21:30:20.635Z,0.60
2019-06-08T21:32:44.431Z,0.80
2019-06-08T21:35:15.237Z,0.60
2019-06-08T21:37:50.677Z,0.70
2019-06-08T21:40:18.646Z,1.37
2019-06-08T21:42:52.149Z,0.77
2019-06-08T21:45:21.642Z,0.60
2019-06-08T21:47:53.313Z,0.63
2019-06-08T21:50:24.784Z,1.00
2019-06-08T21:52:56.765Z,0.97
2019-06-08T21:55:28.086Z,0.93
2019-06-08T21:58:02.040Z,0.80
2019-06-08T22:00:42.908Z,0.70
2019-06-08T22:03:08.089Z,1.23
2019-06-08T22:05:39.380Z,1.10
2019-06-08T22:08:10.442Z,0.77
2019-06-08T22:10:41.247Z,1.00
2019-06-08T22:13:12.590Z,1.87
2019-06-08T22:15:43.551Z,1.00
2019-06-08T22:18:14.513Z,0.77
2019-06-08T22:20:47.643Z,1.37
2019-06-08T22:23:18.145Z,0.83
2019-06-08T22:25:49.226Z,0.70
2019-06-08T22:28:20.073Z,0.80
2019-06-08T22:30:52.113Z,0.70
2019-06-08T22:33:24.308Z,0.90
2019-06-08T22:35:58.517Z,0.90
2019-06-08T22:38:27.720Z,1.00
2019-06-08T22:41:00.277Z,0.70
2019-06-08T22:43:31.197Z,1.20
2019-06-08T22:46:03.447Z,0.80
2019-06-08T22:48:34.384Z,0.80
2019-06-08T22:51:07.821Z,0.80
2019-06-08T22:53:38.362Z,0.90
2019-06-08T22:56:10.426Z,1.00
2019-06-08T22:58:41.316Z,0.83
2019-06-08T23:01:12.237Z,0.63
2019-06-08T23:03:43.087Z,1.00
2019-06-08T23:06:13.859Z,1.90
2019-06-08T23:08:44.862Z,0.70
2019-06-08T23:11:17.838Z,0.60
2019-06-08T23:13:48.324Z,0.60
2019-06-08T23:16:19.011Z,0.73
2019-06-08T23:18:49.557Z,0.70
2019-06-08T23:21:20.131Z,0.73
2019-06-08T23:23:50.712Z,1.53
2019-06-08T23:26:21.249Z,0.93
2019-06-08T23:28:52.043Z,1.50
2019-06-08T23:31:25.633Z,0.70
2019-06-08T23:33:57.181Z,0.70
2019-06-08T23:36:46.712Z,0.73
2019-06-08T23:39:01.114Z,0.80
2019-06-08T23:41:33.423Z,0.60
2019-06-08T23:44:04.213Z,0.50
2019-06-08T23:46:38.028Z,0.60
2019-06-08T23:49:09.166Z,1.00
2019-06-08T23:51:40.084Z,0.60
2019-06-08T23:54:12.513Z,0.87
2019-06-08T23:56:43.547Z,1.03
2019-06-08T23:59:14.582Z,1.03
